Deerfield, New Jersey
Current Conditions -  °F | °C
As of 11:54 PM on Monday 22 Dec 2014 (Local Time) from KMIV Reporting Station
Overcast Overcast  
Wind Chill: 39°   Ceiling: 4900
Heat Index: 44°   Visibility: 10mi
Dew Point: 42°   Wind: 9mph
Humidity: 93%   Direction: 60°ENE
Pressure: 30.07"   Gusts: NA
Location:  39.5314°N, 75.2331°W
Report Text: KMIV 230454Z AUTO 06008KT 10SM OVC049 07/06 A3007 RMK AO2 RAE10 SLP183 P0000 T00670056 400671061
Loading
Personal Weather Stations






























Interactive Weather Map New forecast layout! Learn more

10-Day Weather Forecast

Advertisements
Track Severe Weather on mobile